Latest Weather Observations for Cape Flattery

IDQ60801

Issued at 10:32 am EST Tuesday 7 July 2015 (issued every 30 minutes, with the page automatically refreshed every 10 minutes)

About weather observations | Map of weather stations | Latest weather observations for QLD | Other Formats
Station Details ID: 031213 Name: CAPE FLATTERY Lat: -14.97 Lon: 145.31 Height: 18.5 m
Data from the previous 72 hours. | See also: Recent months at Cape Flattery
Date/Time
EST
Temp
°C
App
Temp
°C
Dew
Point
Rel
Hum
%
Delta-T
°C
Wind Press
QNH
hPa
Press
MSL
hPa
Rain
since 9 am
mm
Dir
 
Spd
km/h
Gust
km/h
Spd
kts
Gust
kts
07/10:30am 23.7 22.5 19.2 76 2.9 SSE 24 32 13 17 1016.9 1016.8 0.0
07/10:00am 24.6 23.5 19.4 73 3.3 SSE 24 32 13 17 1016.8 1016.7 0.0
07/09:30am 24.0 22.9 19.5 76 2.9 SSE 24 32 13 17 1016.9 1016.8 0.0
07/09:00am 24.0 23.1 19.1 74 3.1 SSE 22 33 12 18 1016.9 1016.8 4.0
07/08:30am 24.0 24.2 20.5 81 2.3 SSE 20 28 11 15 1016.6 1016.5 4.0
07/08:00am 22.6 22.9 19.6 83 1.9 SSE 17 20 9 11 1016.1 1016.0 4.0
07/07:30am 22.8 22.4 18.8 78 2.5 SE 19 26 10 14 1015.9 1015.8 4.0
07/07:00am 21.8 21.5 18.2 80 2.2 SE 17 22 9 12 1015.7 1015.6 4.0
07/06:30am 21.9 21.5 18.1 79 2.4 SE 17 22 9 12 1015.4 1015.3 4.0
07/06:00am 22.0 21.8 18.6 81 2.1 SE 17 24 9 13 1015.2 1015.1 4.0
07/05:30am 22.0 21.4 18.4 80 2.3 SE 19 26 10 14 1014.8 1014.7 4.0
07/05:00am 22.3 21.5 18.5 79 2.4 SE 20 24 11 13 1014.7 1014.6 4.0
07/04:30am 22.3 21.8 18.7 80 2.3 SE 19 24 10 13 1014.3 1014.2 4.0
07/04:00am 22.5 22.0 18.7 79 2.4 SE 19 30 10 16 1014.2 1014.1 4.0
07/03:30am 22.6 21.5 18.6 78 2.5 SE 22 30 12 16 1014.0 1013.9 4.0
07/03:00am 22.7 21.1 18.3 76 2.8 SE 24 35 13 19 1014.2 1014.1 4.0
07/02:30am 22.6 21.9 18.6 78 2.5 SE 20 28 11 15 1014.4 1014.3 4.0
07/02:00am 22.6 21.2 18.8 79 2.4 SE 24 32 13 17 1014.5 1014.4 4.0
07/01:30am 22.4 21.4 18.8 80 2.3 SE 22 32 12 17 1014.8 1014.7 4.0
07/01:00am 22.4 21.9 19.2 82 2.0 SE 20 28 11 15 1015.0 1014.9 4.0
07/12:30am 22.5 21.6 19.1 81 2.2 SE 22 30 12 16 1015.3 1015.2 4.0
07/12:00am 22.5 21.9 18.9 80 2.3 SE 20 32 11 17 1015.4 1015.3 4.0
 
Date/Time
EST
Temp
°C
App
Temp
°C
Dew
Point
Rel
Hum
%
Delta-T
°C
Wind Press
QNH
hPa
Press
MSL
hPa
Rain
since 9 am
mm
Dir
 
Spd
km/h
Gust
km/h
Spd
kts
Gust
kts
06/11:30pm 22.4 21.0 18.8 80 2.3 SE 24 32 13 17 1015.5 1015.4 4.0
06/11:00pm 22.7 22.0 19.5 82 2.0 SE 22 32 12 17 1015.7 1015.6 4.0
06/10:30pm 22.6 20.7 18.6 78 2.5 SE 26 33 14 18 1015.7 1015.6 4.0
06/10:00pm 22.4 21.6 19.2 82 2.0 SE 22 30 12 16 1015.9 1015.8 4.0
06/09:30pm 22.4 20.9 18.6 79 2.4 SE 24 32 13 17 1015.8 1015.7 4.0
06/09:00pm 22.5 20.9 19.1 81 2.2 SE 26 35 14 19 1015.9 1015.8 4.0
06/08:30pm 22.6 19.9 18.4 77 2.6 SE 30 39 16 21 1015.7 1015.6 4.0
06/08:00pm 22.6 20.3 18.4 77 2.6 SE 28 37 15 20 1015.4 1015.3 4.0
06/07:30pm 22.4 20.8 19.2 82 2.0 SE 26 32 14 17 1015.1 1015.0 4.0
06/07:00pm 22.0 21.8 19.7 87 1.5 SSE 20 30 11 16 1015.0 1014.9 4.0
06/06:30pm 22.2 21.2 19.7 86 1.6 SSE 24 30 13 16 1014.7 1014.6 4.0
06/06:00pm 22.2 21.2 19.6 85 1.7 SSE 24 33 13 18 1014.6 1014.5 4.0
06/05:30pm 22.7 21.3 19.7 83 1.9 SSE 26 37 14 20 1014.5 1014.4 4.0
06/05:00pm 23.0 20.4 19.6 81 2.2 SSE 32 39 17 21 1014.5 1014.4 4.0
06/04:30pm 23.0 21.4 20.0 83 1.9 SSE 28 39 15 21 1014.5 1014.4 4.0
06/04:00pm 23.6 21.7 20.1 81 2.3 SSE 30 39 16 21 1014.4 1014.3 4.0
06/03:30pm 22.8 20.8 20.0 84 1.8 SSE 30 39 16 21 1014.4 1014.3 4.0
06/03:00pm 22.6 21.2 21.1 91 1.0 SSE 30 41 16 22 1014.6 1014.5 4.0
06/02:30pm 21.9 21.4 20.7 93 0.8 SSE 24 35 13 19 1014.8 1014.7 4.0
06/02:00pm 21.4 21.5 20.4 94 0.6 S 20 28 11 15 1015.2 1015.1 3.4
06/01:30pm 22.2 22.1 20.7 91 1.0 SE 22 33 12 18 1015.6 1015.5 2.2
06/01:00pm 24.1 23.0 19.4 75 3.0 SSE 24 33 13 18 1015.6 1015.5 1.0
06/12:30pm 22.4 21.1 19.8 85 1.7 SE 26 35 14 19 1016.1 1016.0 1.0
06/12:14pm 21.2 19.3 19.3 89 1.2 SE 28 46 15 25 1016.5 1016.4 1.0
06/12:00pm 21.8 21.2 20.4 92 0.9 SSE 24 33 13 18 1016.8 1016.7 1.0
06/11:30am 22.7 22.9 20.6 88 1.4 SSE 20 28 11 15 1016.9 1016.8 0.0
06/11:00am 23.8 22.8 18.9 74 3.1 SE 22 30 12 16 1017.1 1017.0 0.0
06/10:30am 23.3 22.4 19.0 77 2.7 SE 22 32 12 17 1017.2 1017.1 0.0
06/10:00am 22.3 21.2 20.2 88 1.4 SSE 26 35 14 19 1017.5 1017.4 0.0
06/09:30am 21.5 21.5 20.1 92 0.9 SSE 20 30 11 16 1017.7 1017.6 0.0
06/09:00am 20.7 18.6 19.7 94 0.6 SE 30 43 16 23 1017.6 1017.5 0.8
06/08:30am 20.9 20.0 19.9 94 0.6 SE 24 33 13 18 1017.1 1017.0 0.8
06/08:00am 21.9 21.1 20.0 89 1.2 SSE 24 32 13 17 1016.8 1016.7 0.2
06/07:30am 21.0 20.4 18.9 88 1.3 SSE 20 28 11 15 1016.6 1016.5 0.2
06/07:00am 20.8 18.6 18.7 88 1.3 SSE 28 37 15 20 1016.4 1016.3 0.2
06/06:30am 21.3 19.9 18.9 86 1.5 SSE 24 32 13 17 1016.1 1016.0 0.2
06/06:00am 21.4 20.9 19.1 87 1.5 SSE 20 28 11 15 1015.9 1015.8 0.2
06/05:30am 20.6 19.9 18.7 89 1.2 SSE 20 28 11 15 1015.7 1015.6 0.2
06/05:00am 21.1 19.0 19.0 88 1.3 SSE 28 35 15 19 1015.6 1015.5 0.2
06/04:30am 21.5 20.2 19.1 86 1.5 SSE 24 32 13 17 1015.5 1015.4 0.2
06/04:00am 21.4 19.8 19.3 88 1.3 SSE 26 33 14 18 1015.3 1015.2 0.2
06/03:30am 21.4 19.9 19.5 89 1.2 SSE 26 35 14 19 1015.4 1015.3 0.2
06/03:00am 21.6 19.9 19.0 85 1.6 SSE 26 33 14 18 1015.5 1015.4 0.0
06/02:30am 21.9 20.9 19.6 87 1.5 SSE 24 32 13 17 1015.6 1015.5 0.0
06/02:00am 21.8 19.8 19.2 85 1.6 SSE 28 35 15 19 1015.7 1015.6 0.0
06/01:30am 21.9 20.1 19.6 87 1.5 SSE 28 35 15 19 1015.9 1015.8 0.0
06/01:00am 21.9 19.5 19.1 84 1.8 SE 30 43 16 23 1016.1 1016.0 0.0
06/12:30am 22.1 20.3 19.5 85 1.7 SSE 28 35 15 19 1016.5 1016.4 0.0
06/12:00am 22.2 20.6 20.1 88 1.3 SSE 28 37 15 20 1016.5 1016.4 0.0
 
Date/Time
EST
Temp
°C
App
Temp
°C
Dew
Point
Rel
Hum
%
Delta-T
°C
Wind Press
QNH
hPa
Press
MSL
hPa
Rain
since 9 am
mm
Dir
 
Spd
km/h
Gust
km/h
Spd
kts
Gust
kts
05/11:30pm 21.9 20.5 19.6 87 1.5 SSE 26 33 14 18 1016.6 1016.5 0.0
05/11:00pm 21.4 20.9 20.0 92 0.9 SSE 22 32 12 17 1016.7 1016.6 0.0
05/10:30pm 21.0 20.0 19.6 92 0.9 SE 24 33 13 18 1016.8 1016.7 0.0
05/10:00pm 22.1 20.7 20.4 90 1.1 SSE 28 35 15 19 1017.0 1016.9 0.0
05/09:30pm 21.8 20.0 19.5 87 1.5 SSE 28 37 15 20 1016.9 1016.8 0.0
05/09:26pm 22.0 20.1 19.4 85 1.7 SSE 28 37 15 20 1016.9 1016.8 0.0
05/09:00pm 22.2 23.0 19.9 87 1.5 S 15 19 8 10 1016.8 1016.7 0.0
05/08:30pm 22.1 21.9 19.8 87 1.5 SSE 20 30 11 16 1016.8 1016.7 0.0
05/08:00pm 21.9 21.6 19.5 86 1.5 S 20 26 11 14 1016.6 1016.5 0.0
05/07:30pm 21.9 22.4 19.3 85 1.7 SSE 15 20 8 11 1016.1 1016.0 0.0
05/07:00pm 22.0 20.7 19.0 83 1.9 SSE 24 35 13 19 1016.0 1015.9 0.0
05/06:30pm 22.5 21.2 19.1 81 2.2 SSE 24 33 13 18 1015.6 1015.5 0.0
05/06:00pm 23.0 21.9 19.4 80 2.3 SSE 24 32 13 17 1015.4 1015.3 0.0
05/05:30pm 23.1 21.2 19.3 79 2.4 SSE 28 39 15 21 1015.2 1015.1 0.0
05/05:00pm 23.3 21.1 19.5 79 2.4 SSE 30 37 16 20 1015.0 1014.9 0.0
05/04:30pm 24.2 22.4 20.3 79 2.5 SSE 30 39 16 21 1014.9 1014.8 0.0
05/04:00pm 24.7 23.1 20.0 75 3.0 SSE 28 33 15 18 1014.7 1014.6 0.0
05/03:30pm 25.6 24.3 19.9 70 3.7 SSE 26 32 14 17 1014.8 1014.7 0.0
05/03:00pm 25.6 24.1 19.5 69 3.9 SE 26 32 14 17 1015.0 1014.9 0.0
05/02:30pm 26.0 25.3 20.3 71 3.7 SSE 24 30 13 16 1015.1 1015.0 0.0
05/02:00pm 26.0 24.5 20.3 71 3.7 S 28 33 15 18 1015.4 1015.3 0.0
05/01:30pm 25.8 24.4 20.4 72 3.5 S 28 39 15 21 1015.7 1015.6 0.0
05/01:00pm 25.3 23.8 19.4 70 3.8 S 26 35 14 19 1016.1 1016.0 0.0
05/12:30pm 25.2 23.5 19.8 72 3.5 S 28 37 15 20 1016.5 1016.4 0.0
05/12:00pm 25.5 23.3 19.6 70 3.8 SSE 30 39 16 21 1016.7 1016.6 0.0
05/11:30am 25.5 24.1 19.6 70 3.8 SSE 26 32 14 17 1017.1 1017.0 0.0
05/11:00am 25.5 24.2 19.9 71 3.6 SSE 26 33 14 18 1017.3 1017.2 0.0
05/10:30am 24.8 23.0 19.6 73 3.3 SSE 28 35 15 19 1017.6 1017.5 0.0
05/10:00am 24.5 23.2 19.8 75 3.0 SSE 26 35 14 19 1017.8 1017.7 0.0
05/09:30am 23.3 21.2 19.0 77 2.7 SSE 28 37 15 20 1017.9 1017.8 0.0
05/09:00am 24.0 22.4 19.3 75 3.0 SSE 26 33 14 18 1017.8 1017.7 0.0
05/08:30am 23.4 21.9 18.5 74 3.1 SSE 24 33 13 18 1017.4 1017.3 0.0
05/08:00am 23.1 21.7 18.8 77 2.7 SSE 24 32 13 17 1017.2 1017.1 0.0
05/07:30am 21.8 21.2 18.8 83 1.9 SSE 20 28 11 15 1017.1 1017.0 0.0
05/07:00am 21.6 20.5 18.6 83 1.9 SSE 22 30 12 16 1016.8 1016.7 0.0
05/06:30am 21.7 20.3 18.7 83 1.9 SSE 24 32 13 17 1016.5 1016.4 0.0
05/06:00am 21.4 20.0 18.8 85 1.6 SSE 24 32 13 17 1016.2 1016.1 0.0
05/05:30am 21.4 19.9 18.6 84 1.8 SSE 24 32 13 17 1016.0 1015.9 0.0
05/05:00am 21.4 20.0 18.8 85 1.6 SSE 24 32 13 17 1015.7 1015.6 0.0
05/04:30am 21.4 19.6 18.8 85 1.6 SSE 26 33 14 18 1015.7 1015.6 0.0
05/04:00am 21.7 20.0 18.9 84 1.8 SSE 26 37 14 20 1015.5 1015.4 0.0
05/03:30am 21.9 20.2 18.9 83 1.9 SSE 26 35 14 19 1015.4 1015.3 0.0
05/03:00am 21.9 20.0 18.5 81 2.1 SSE 26 33 14 18 1015.5 1015.4 0.0
05/02:30am 22.2 20.2 18.4 79 2.4 SSE 26 35 14 19 1015.7 1015.6 0.0
05/02:00am 22.5 20.2 18.5 78 2.5 SSE 28 37 15 20 1016.0 1015.9 0.0
05/01:30am 22.5 19.7 18.3 77 2.6 SE 30 41 16 22 1016.1 1016.0 0.0
05/01:00am 22.4 20.1 18.4 78 2.5 SE 28 33 15 18 1016.2 1016.1 0.0
05/12:30am 22.2 19.9 18.4 79 2.4 SE 28 39 15 21 1016.4 1016.3 0.0
05/12:00am 22.3 19.5 18.3 78 2.5 SE 30 39 16 21 1016.5 1016.4 0.0
 
Date/Time
EST
Temp
°C
App
Temp
°C
Dew
Point
Rel
Hum
%
Delta-T
°C
Wind Press
QNH
hPa
Press
MSL
hPa
Rain
since 9 am
mm
Dir
 
Spd
km/h
Gust
km/h
Spd
kts
Gust
kts
04/11:30pm 22.5 19.4 18.5 78 2.5 SE 32 43 17 23 1016.6 1016.5 0.0
04/11:00pm 22.4 18.9 18.0 76 2.7 SE 33 46 18 25 1016.7 1016.6 0.0
04/10:30pm 22.4 19.1 18.0 76 2.7 SE 32 41 17 22 1016.7 1016.6 0.0
04/10:00pm 22.3 19.5 18.3 78 2.5 SSE 30 43 16 23 1016.8 1016.7 0.0
04/09:30pm 22.5 19.0 17.8 75 2.9 SE 33 43 18 23 1016.8 1016.7 0.0
04/09:00pm 22.6 19.2 18.2 76 2.8 SSE 33 46 18 25 1016.6 1016.5 0.0
04/08:30pm 22.6 18.6 17.7 74 3.0 SSE 35 48 19 26 1016.6 1016.5 0.0
04/08:00pm 22.6 18.8 18.2 76 2.8 SSE 35 46 19 25 1016.3 1016.2 0.0
04/07:30pm 23.0 18.5 16.5 67 4.0 SE 35 46 19 25 1015.9 1015.8 0.0
04/07:00pm 22.9 19.1 16.7 68 3.8 SE 32 41 17 22 1015.7 1015.6 0.0
04/06:30pm 22.8 19.2 17.3 71 3.4 SSE 32 43 17 23 1015.5 1015.4 0.0
04/06:00pm 22.6 18.8 17.1 71 3.4 SSE 33 43 18 23 1015.3 1015.2 0.0
04/05:30pm 22.9 19.1 18.2 75 2.9 SSE 35 48 19 26 1014.9 1014.8 0.0
04/05:00pm 23.1 19.1 17.6 71 3.4 SSE 35 48 19 26 1014.7 1014.6 0.0
04/04:30pm 23.0 18.2 17.5 71 3.4 SSE 39 50 21 27 1014.6 1014.5 0.0
04/04:00pm 23.2 19.3 17.9 72 3.3 SSE 35 48 19 26 1014.5 1014.4 0.0
04/03:30pm 23.9 20.1 19.0 74 3.1 SSE 37 52 20 28 1014.6 1014.5 0.0
04/03:00pm 23.7 18.5 18.4 72 3.3 SSE 43 52 23 28 1014.8 1014.7 0.0
04/02:30pm 24.1 19.0 18.5 71 3.5 SSE 43 56 23 30 1014.9 1014.8 0.0
04/02:00pm 24.7 20.3 19.3 72 3.5 SSE 41 57 22 31 1015.1 1015.0 0.0
04/01:30pm 24.4 19.7 18.6 70 3.7 SSE 41 54 22 29 1015.4 1015.3 0.0
04/01:00pm 24.9 19.9 17.9 65 4.4 SSE 41 54 22 29 1015.8 1015.7 0.0
04/12:30pm 24.5 19.5 17.0 63 4.6 SSE 39 48 21 26 1016.1 1016.0 0.0
04/12:00pm 25.3 21.7 17.7 62 4.8 S 33 46 18 25 1016.8 1016.7 0.0
04/11:30am 24.7 21.1 17.2 63 4.7 SSE 32 41 17 22 1017.3 1017.2 0.0
04/11:00am 24.8 21.4 17.8 65 4.4 SSE 32 41 17 22 1017.7 1017.6 0.0

Other Formats:

Comma delimited format used in spreadsheet applications
http://www.bom.gov.au/fwo/IDQ60801/IDQ60801.94188.axf

JavaScript Object Notation format (JSON) in row-major order
http://www.bom.gov.au/fwo/IDQ60801/IDQ60801.94188.json